createdAt,value
2022-08-07T00:00:29.817Z,22.50
2022-08-07T00:03:08.718Z,22.52
2022-08-07T00:05:36.279Z,22.50
2022-08-07T00:08:04.753Z,22.47
2022-08-07T00:10:31.923Z,22.44
2022-08-07T00:13:02.227Z,22.40
2022-08-07T00:15:36.090Z,22.36
2022-08-07T00:18:05.738Z,22.27
2022-08-07T00:20:35.344Z,22.24
2022-08-07T00:23:02.621Z,22.20
2022-08-07T00:25:37.204Z,22.15
2022-08-07T00:28:08.497Z,22.09
2022-08-07T00:30:37.812Z,22.17
2022-08-07T00:33:04.993Z,22.17
2022-08-07T00:35:35.172Z,22.11
2022-08-07T00:38:03.841Z,22.09
2022-08-07T00:40:36.555Z,22.04
2022-08-07T00:44:01.496Z,22.04
2022-08-07T00:45:59.628Z,21.99
2022-08-07T00:48:30.943Z,21.97
2022-08-07T00:51:00.196Z,21.95
2022-08-07T00:53:27.433Z,21.84
2022-08-07T00:56:13.891Z,21.89
2022-08-07T00:58:42.779Z,21.91
2022-08-07T01:01:13.909Z,21.89
2022-08-07T01:03:56.440Z,21.82
2022-08-07T01:06:28.552Z,21.83
2022-08-07T01:08:58.297Z,21.80
2022-08-07T01:12:09.100Z,21.72
2022-08-07T01:14:12.770Z,21.72
2022-08-07T01:16:46.832Z,21.61
2022-08-07T01:19:18.785Z,21.68
2022-08-07T01:21:47.533Z,21.62
2022-08-07T01:24:14.590Z,21.57
2022-08-07T01:26:52.127Z,21.60
2022-08-07T01:29:23.263Z,21.58
2022-08-07T01:31:50.965Z,21.50
2022-08-07T01:34:18.107Z,21.53
2022-08-07T01:36:52.626Z,21.48
2022-08-07T01:39:40.664Z,21.46
2022-08-07T01:42:38.142Z,21.40
2022-08-07T01:45:05.070Z,21.39
2022-08-07T01:48:19.102Z,21.31
2022-08-07T01:50:29.064Z,21.34
2022-08-07T01:52:57.239Z,21.34
2022-08-07T01:55:29.900Z,21.32
2022-08-07T01:58:05.471Z,21.29
2022-08-07T02:00:34.220Z,21.27
2022-08-07T02:03:21.913Z,21.24
2022-08-07T02:06:08.919Z,21.20
2022-08-07T02:08:54.183Z,21.14
2022-08-07T02:12:02.705Z,21.09
2022-08-07T02:14:08.595Z,21.06
2022-08-07T02:16:36.314Z,21.05
2022-08-07T02:19:05.685Z,20.99
2022-08-07T02:21:56.191Z,20.97
2022-08-07T02:24:24.452Z,20.98
2022-08-07T02:26:51.408Z,20.98
2022-08-07T02:29:21.818Z,21.00
2022-08-07T02:31:48.899Z,20.93
2022-08-07T02:34:17.450Z,20.92
2022-08-07T02:36:45.294Z,20.87
2022-08-07T02:39:17.176Z,20.86
2022-08-07T02:42:00.596Z,20.82
2022-08-07T02:44:34.774Z,20.77
2022-08-07T02:47:03.922Z,20.83
2022-08-07T02:49:56.400Z,20.81
2022-08-07T02:52:21.641Z,20.72
2022-08-07T02:54:59.731Z,20.74
2022-08-07T02:57:28.731Z,20.67
2022-08-07T03:00:05.134Z,20.58
2022-08-07T03:02:41.990Z,20.59
2022-08-07T03:05:22.956Z,20.55
2022-08-07T03:08:04.794Z,20.51
2022-08-07T03:10:34.294Z,20.54
2022-08-07T03:13:07.927Z,20.56
2022-08-07T03:15:47.686Z,20.51
2022-08-07T03:18:34.207Z,20.42
2022-08-07T03:21:04.382Z,20.37
2022-08-07T03:23:33.693Z,20.35
2022-08-07T03:26:23.434Z,20.32
2022-08-07T03:28:51.544Z,20.32
2022-08-07T03:31:18.683Z,20.34
2022-08-07T03:33:54.961Z,20.30
2022-08-07T03:36:26.512Z,20.25
2022-08-07T03:38:55.809Z,20.25
2022-08-07T03:41:42.534Z,20.24
2022-08-07T03:44:10.880Z,20.20
2022-08-07T03:47:13.894Z,20.20
2022-08-07T03:49:30.060Z,20.21
2022-08-07T03:52:01.463Z,20.13
2022-08-07T03:54:35.770Z,20.15
2022-08-07T03:57:07.207Z,20.10
2022-08-07T03:59:34.701Z,20.04
2022-08-07T04:02:01.609Z,20.09
2022-08-07T04:04:28.749Z,20.04
2022-08-07T04:07:00.137Z,19.99
2022-08-07T04:09:44.879Z,20.05
2022-08-07T04:12:24.849Z,20.11
2022-08-07T04:14:55.080Z,20.09
2022-08-07T04:17:23.440Z,20.11
2022-08-07T04:20:11.981Z,20.08
2022-08-07T04:22:40.436Z,20.07
2022-08-07T04:25:22.584Z,20.09
2022-08-07T04:27:59.117Z,20.07
2022-08-07T04:30:39.368Z,20.09
2022-08-07T04:33:14.037Z,20.09
2022-08-07T04:35:44.468Z,20.06
2022-08-07T04:38:17.848Z,20.11
2022-08-07T04:40:52.945Z,20.14
2022-08-07T04:44:12.364Z,20.15
2022-08-07T04:46:59.562Z,20.18
2022-08-07T04:49:37.803Z,20.20
2022-08-07T04:52:25.156Z,20.22
2022-08-07T04:54:58.115Z,20.24
2022-08-07T04:58:13.161Z,20.20
2022-08-07T05:00:31.664Z,20.25
2022-08-07T05:03:17.251Z,20.25
2022-08-07T05:06:00.180Z,20.26
2022-08-07T05:08:59.593Z,20.28
2022-08-07T05:11:58.334Z,20.32
2022-08-07T05:14:52.665Z,20.35
2022-08-07T05:17:52.638Z,20.39
2022-08-07T05:20:11.888Z,20.46
2022-08-07T05:22:40.315Z,20.49
2022-08-07T05:25:11.536Z,20.53
2022-08-07T05:28:03.182Z,20.58
2022-08-07T05:30:32.796Z,20.65
2022-08-07T05:33:02.598Z,20.71
2022-08-07T05:35:33.800Z,20.79
2022-08-07T05:38:09.969Z,20.86
2022-08-07T05:40:37.875Z,20.90
2022-08-07T05:43:18.579Z,20.96
2022-08-07T05:45:47.565Z,21.00
2022-08-07T05:48:15.326Z,21.04
2022-08-07T05:50:43.634Z,21.11
2022-08-07T05:54:13.867Z,21.18
2022-08-07T05:56:03.030Z,21.23
2022-08-07T05:58:36.527Z,21.28
2022-08-07T06:01:08.385Z,21.36
2022-08-07T06:03:53.711Z,21.43
2022-08-07T06:06:24.399Z,21.49
2022-08-07T06:08:57.228Z,21.55
2022-08-07T06:11:25.121Z,21.60
2022-08-07T06:14:13.138Z,21.65
2022-08-07T06:16:40.199Z,21.72
2022-08-07T06:19:07.111Z,21.78
2022-08-07T06:22:15.515Z,21.82
2022-08-07T06:24:45.437Z,21.91
2022-08-07T06:27:08.024Z,21.96
2022-08-07T06:29:39.052Z,22.04
2022-08-07T06:32:06.259Z,22.09
2022-08-07T06:34:34.100Z,22.15
2022-08-07T06:37:02.887Z,22.21
2022-08-07T06:40:13.070Z,22.28
2022-08-07T06:42:32.857Z,22.34
2022-08-07T06:45:02.385Z,22.42
2022-08-07T06:47:48.263Z,22.51
2022-08-07T06:50:17.625Z,22.70
2022-08-07T06:52:52.941Z,22.72
2022-08-07T06:55:47.613Z,22.81
2022-08-07T06:58:14.279Z,22.89
2022-08-07T07:00:43.839Z,22.95
2022-08-07T07:03:14.607Z,23.04
2022-08-07T07:06:04.689Z,23.13
2022-08-07T07:08:33.212Z,23.21
2022-08-07T07:11:13.101Z,23.29
2022-08-07T07:13:58.600Z,23.38
2022-08-07T07:16:31.222Z,23.46
2022-08-07T07:19:04.131Z,23.57
2022-08-07T07:22:04.334Z,23.66
2022-08-07T07:24:26.244Z,23.74
2022-08-07T07:26:53.839Z,23.76
2022-08-07T07:29:39.463Z,23.83
2022-08-07T07:32:12.535Z,23.88
2022-08-07T07:34:48.676Z,23.95
2022-08-07T07:37:45.480Z,24.00
2022-08-07T07:40:14.541Z,24.07
2022-08-07T07:42:47.176Z,24.18
2022-08-07T07:45:18.899Z,24.24
2022-08-07T07:47:52.479Z,24.32
2022-08-07T07:50:34.813Z,24.38
2022-08-07T07:53:20.637Z,24.52
2022-08-07T07:55:54.635Z,24.62
2022-08-07T07:58:27.374Z,24.69
2022-08-07T08:00:54.926Z,24.82
2022-08-07T08:04:10.389Z,24.92
2022-08-07T08:06:11.648Z,25.02
2022-08-07T08:08:42.118Z,25.08
2022-08-07T08:11:16.526Z,25.16
2022-08-07T08:13:56.986Z,25.28
2022-08-07T08:16:38.650Z,25.33
2022-08-07T08:19:09.806Z,25.40
2022-08-07T08:22:13.160Z,25.46
2022-08-07T08:25:18.776Z,25.53
2022-08-07T08:27:55.998Z,25.62
2022-08-07T08:30:24.942Z,25.68
2022-08-07T08:32:58.562Z,25.73
2022-08-07T08:35:28.764Z,25.81
2022-08-07T08:38:01.128Z,25.84
2022-08-07T08:40:36.339Z,25.88
2022-08-07T08:43:12.642Z,25.92
2022-08-07T08:46:25.378Z,25.91
2022-08-07T08:49:13.588Z,25.98
2022-08-07T08:52:16.560Z,26.04
2022-08-07T08:55:01.159Z,26.09
2022-08-07T08:57:52.575Z,26.14
2022-08-07T09:00:21.031Z,26.16
2022-08-07T09:03:03.806Z,26.20
2022-08-07T09:06:03.364Z,26.21
2022-08-07T09:09:03.216Z,26.24
2022-08-07T09:11:53.263Z,26.25
2022-08-07T09:14:36.620Z,26.29
2022-08-07T09:17:07.971Z,26.27
2022-08-07T09:19:53.180Z,26.31
2022-08-07T09:24:32.713Z,26.31
2022-08-07T09:25:54.273Z,26.28
2022-08-07T09:30:05.874Z,26.26
2022-08-07T09:31:40.992Z,26.35
2022-08-07T09:34:54.058Z,26.39
2022-08-07T09:37:33.628Z,26.37
2022-08-07T09:40:50.202Z,26.37
2022-08-07T09:43:40.143Z,26.35
2022-08-07T09:47:51.123Z,26.35
2022-08-07T09:50:18.455Z,26.40
2022-08-07T09:52:53.996Z,26.41
2022-08-07T09:55:29.494Z,26.46
2022-08-07T09:58:32.322Z,26.47
2022-08-07T10:01:23.292Z,26.56
2022-08-07T10:04:32.555Z,26.56
2022-08-07T10:07:24.168Z,26.54
2022-08-07T10:10:21.885Z,26.58
2022-08-07T10:12:53.131Z,26.59
2022-08-07T10:15:44.675Z,26.64
2022-08-07T10:18:36.801Z,26.73
2022-08-07T10:22:15.896Z,26.67
2022-08-07T10:25:42.216Z,26.73
2022-08-07T10:28:31.196Z,26.75
2022-08-07T10:31:11.847Z,26.80
2022-08-07T10:34:15.147Z,26.83
2022-08-07T10:37:14.763Z,26.90
2022-08-07T10:40:21.922Z,26.93
2022-08-07T10:43:15.394Z,26.96
2022-08-07T10:45:57.751Z,26.98
2022-08-07T10:48:35.620Z,27.01
2022-08-07T10:51:39.113Z,27.01
2022-08-07T10:54:36.031Z,27.10
2022-08-07T10:57:04.571Z,27.16
2022-08-07T11:00:07.271Z,27.20
2022-08-07T11:02:54.698Z,27.20
2022-08-07T11:05:35.667Z,27.22
2022-08-07T11:08:39.031Z,27.30
2022-08-07T11:11:09.714Z,27.29
2022-08-07T11:14:43.411Z,27.34
2022-08-07T11:16:36.862Z,27.38
2022-08-07T11:19:27.279Z,27.36
2022-08-07T11:21:57.398Z,27.36
2022-08-07T11:25:06.580Z,27.49
2022-08-07T11:28:01.838Z,27.53
2022-08-07T11:30:41.487Z,27.60
2022-08-07T11:33:17.687Z,27.57
2022-08-07T11:36:10.468Z,27.58
2022-08-07T11:38:50.505Z,27.69
2022-08-07T11:41:29.700Z,27.90
2022-08-07T11:44:33.274Z,27.93
2022-08-07T11:47:20.247Z,27.92
2022-08-07T11:50:29.076Z,27.88
2022-08-07T11:53:22.064Z,27.91
2022-08-07T11:56:14.009Z,28.03
2022-08-07T11:59:22.072Z,28.11
2022-08-07T12:02:31.093Z,28.11
2022-08-07T12:05:28.698Z,28.13
2022-08-07T12:08:25.448Z,28.25
2022-08-07T12:11:20.500Z,28.06
2022-08-07T12:14:08.589Z,28.16
2022-08-07T12:16:46.938Z,28.22
2022-08-07T12:19:21.265Z,28.36
2022-08-07T12:22:36.171Z,28.41
2022-08-07T12:26:21.385Z,28.43
2022-08-07T12:28:37.381Z,28.36
2022-08-07T12:31:52.339Z,28.42
2022-08-07T12:34:21.538Z,28.61
2022-08-07T12:36:53.870Z,28.67
2022-08-07T12:39:43.888Z,28.61
2022-08-07T12:42:08.250Z,28.76
2022-08-07T12:44:35.154Z,28.82
2022-08-07T12:47:27.006Z,28.96
2022-08-07T12:50:33.971Z,28.80
2022-08-07T12:53:18.957Z,28.82
2022-08-07T12:56:32.107Z,29.09
2022-08-07T12:59:00.866Z,29.19
2022-08-07T13:01:34.014Z,29.27
2022-08-07T13:04:38.151Z,29.39
2022-08-07T13:07:28.170Z,29.29
2022-08-07T13:10:39.563Z,29.22
2022-08-07T13:13:47.235Z,29.36
2022-08-07T13:16:17.407Z,29.45
2022-08-07T13:19:11.377Z,29.57
2022-08-07T13:22:30.095Z,29.51
2022-08-07T13:25:24.057Z,29.49
2022-08-07T13:28:11.077Z,29.68
2022-08-07T13:30:53.391Z,29.63
2022-08-07T13:34:31.225Z,29.72
2022-08-07T13:36:53.434Z,29.74
2022-08-07T13:40:36.154Z,29.71
2022-08-07T13:42:40.766Z,29.65
2022-08-07T13:46:06.097Z,29.67
2022-08-07T13:48:05.510Z,29.72
2022-08-07T13:50:55.650Z,29.66
2022-08-07T13:53:59.719Z,29.78
2022-08-07T13:56:36.068Z,29.81
2022-08-07T13:59:27.132Z,29.85
2022-08-07T14:02:10.783Z,29.86
2022-08-07T14:04:50.133Z,29.87
2022-08-07T14:07:23.714Z,29.88
2022-08-07T14:10:15.020Z,29.86
2022-08-07T14:12:54.578Z,29.88
2022-08-07T14:15:39.555Z,29.81
2022-08-07T14:18:27.583Z,29.73
2022-08-07T14:22:03.426Z,29.79
2022-08-07T14:24:33.267Z,29.78
2022-08-07T14:28:11.455Z,29.81
2022-08-07T14:30:07.939Z,29.82
2022-08-07T14:32:46.962Z,29.83
2022-08-07T14:35:45.307Z,29.90
2022-08-07T14:38:30.230Z,29.93
2022-08-07T14:41:04.080Z,29.91
2022-08-07T14:43:55.594Z,29.83
2022-08-07T14:46:31.413Z,29.89
2022-08-07T14:49:55.657Z,29.95
2022-08-07T14:54:35.829Z,29.99
2022-08-07T14:57:11.239Z,30.02
2022-08-07T15:00:03.403Z,29.94
2022-08-07T15:02:34.917Z,29.85
2022-08-07T15:05:04.403Z,29.76
2022-08-07T15:07:51.252Z,29.73
2022-08-07T15:10:26.486Z,29.91
2022-08-07T15:12:58.439Z,29.87
2022-08-07T15:15:40.820Z,29.92
2022-08-07T15:18:14.368Z,29.95
2022-08-07T15:20:59.063Z,30.00
2022-08-07T15:26:22.564Z,29.99
2022-08-07T15:28:59.516Z,29.97
2022-08-07T15:31:58.053Z,29.99
2022-08-07T15:34:36.991Z,30.03
2022-08-07T15:37:06.577Z,29.96
2022-08-07T15:39:57.899Z,30.02
2022-08-07T15:42:48.252Z,30.06
2022-08-07T15:45:25.098Z,30.06
2022-08-07T15:48:30.628Z,29.91
2022-08-07T15:51:09.553Z,29.93
2022-08-07T15:53:53.148Z,29.89
2022-08-07T15:56:33.217Z,29.88
2022-08-07T15:59:03.189Z,29.91
2022-08-07T16:01:38.738Z,29.88
2022-08-07T16:04:15.365Z,29.75
2022-08-07T16:06:50.633Z,29.79
2022-08-07T16:09:22.778Z,29.85
2022-08-07T16:12:29.219Z,29.82
2022-08-07T16:15:54.979Z,29.77
2022-08-07T16:18:43.423Z,29.75
2022-08-07T16:21:53.762Z,29.72
2022-08-07T16:24:35.531Z,29.63
2022-08-07T16:27:40.670Z,29.61
2022-08-07T16:30:29.589Z,29.54
2022-08-07T16:34:01.859Z,29.45
2022-08-07T16:35:58.542Z,29.37
2022-08-07T16:39:01.100Z,29.39
2022-08-07T16:41:48.711Z,29.37
2022-08-07T16:44:47.308Z,29.38
2022-08-07T16:47:57.170Z,29.33
2022-08-07T16:50:37.016Z,29.35
2022-08-07T16:54:02.531Z,29.29
2022-08-07T16:56:27.530Z,29.22
2022-08-07T16:59:17.428Z,29.20
2022-08-07T17:02:51.371Z,29.23
2022-08-07T17:06:28.356Z,29.22
2022-08-07T17:09:09.646Z,29.19
2022-08-07T17:12:01.508Z,29.15
2022-08-07T17:14:34.579Z,29.08
2022-08-07T17:17:02.767Z,29.06
2022-08-07T17:20:02.908Z,29.04
2022-08-07T17:22:39.174Z,28.99
2022-08-07T17:25:20.205Z,28.95
2022-08-07T17:28:12.503Z,28.89
2022-08-07T17:30:58.551Z,28.83
2022-08-07T17:34:08.646Z,28.79
2022-08-07T17:36:20.351Z,28.74
2022-08-07T17:39:10.137Z,28.71
2022-08-07T17:42:04.157Z,28.65
2022-08-07T17:44:45.578Z,28.60
2022-08-07T17:47:46.139Z,28.54
2022-08-07T17:50:30.614Z,28.45
2022-08-07T17:53:01.118Z,28.41
2022-08-07T17:56:01.117Z,28.39
2022-08-07T17:58:54.533Z,28.32
2022-08-07T18:01:39.576Z,28.26
2022-08-07T18:04:16.151Z,28.22
2022-08-07T18:07:20.668Z,28.18
2022-08-07T18:10:07.478Z,28.09
2022-08-07T18:12:42.310Z,28.05
2022-08-07T18:15:12.731Z,28.03
2022-08-07T18:18:47.543Z,27.98
2022-08-07T18:21:12.802Z,27.91
2022-08-07T18:23:50.789Z,27.85
2022-08-07T18:26:34.019Z,27.81
2022-08-07T18:30:08.032Z,27.75
2022-08-07T18:32:29.449Z,27.68
2022-08-07T18:35:09.375Z,27.62
2022-08-07T18:38:55.757Z,27.55
2022-08-07T18:41:45.328Z,27.52
2022-08-07T18:44:19.500Z,27.42
2022-08-07T18:46:59.655Z,27.37
2022-08-07T18:50:33.150Z,27.34
2022-08-07T18:52:54.272Z,27.26
2022-08-07T18:55:43.345Z,27.14
2022-08-07T18:58:52.918Z,27.07
2022-08-07T19:02:19.091Z,27.07
2022-08-07T19:04:58.093Z,26.93
2022-08-07T19:08:05.412Z,26.86
2022-08-07T19:10:51.919Z,26.81
2022-08-07T19:13:27.499Z,26.82
2022-08-07T19:17:01.405Z,26.72
2022-08-07T19:19:13.241Z,26.64
2022-08-07T19:21:53.572Z,26.51
2022-08-07T19:24:50.127Z,26.43
2022-08-07T19:28:58.448Z,26.46
2022-08-07T19:31:05.190Z,26.42
2022-08-07T19:33:02.421Z,26.39
2022-08-07T19:35:37.555Z,26.31
2022-08-07T19:38:17.175Z,26.27
2022-08-07T19:40:49.959Z,26.24
2022-08-07T19:43:44.211Z,26.09
2022-08-07T19:46:11.087Z,26.07
2022-08-07T19:48:44.428Z,26.01
2022-08-07T19:51:51.044Z,25.91
2022-08-07T19:54:35.000Z,25.93
2022-08-07T19:57:59.904Z,25.80
2022-08-07T19:59:49.339Z,25.81
2022-08-07T20:02:30.020Z,25.76
2022-08-07T20:04:57.629Z,25.71
2022-08-07T20:07:47.825Z,25.65
2022-08-07T20:10:35.847Z,25.55
2022-08-07T20:13:23.945Z,25.51
2022-08-07T20:15:55.438Z,25.51
2022-08-07T20:18:33.421Z,25.45
2022-08-07T20:21:03.955Z,25.40
2022-08-07T20:24:02.403Z,25.38
2022-08-07T20:26:45.256Z,25.29
2022-08-07T20:29:49.210Z,25.31
2022-08-07T20:32:06.186Z,25.15
2022-08-07T20:34:50.701Z,25.16
2022-08-07T20:37:33.728Z,25.12
2022-08-07T20:40:04.979Z,25.03
2022-08-07T20:42:56.155Z,24.94
2022-08-07T20:45:33.108Z,24.95
2022-08-07T20:48:11.938Z,24.87
2022-08-07T20:50:57.089Z,24.81
2022-08-07T20:54:02.111Z,24.80
2022-08-07T20:56:46.164Z,24.76
2022-08-07T21:00:04.499Z,24.76
2022-08-07T21:02:23.191Z,24.64
2022-08-07T21:04:55.115Z,24.60
2022-08-07T21:07:24.110Z,24.60
2022-08-07T21:10:00.464Z,24.51
2022-08-07T21:12:31.007Z,24.49
2022-08-07T21:14:59.579Z,24.45
2022-08-07T21:18:04.070Z,24.36
2022-08-07T21:20:19.071Z,24.31
2022-08-07T21:22:58.328Z,24.27
2022-08-07T21:25:44.100Z,24.19
2022-08-07T21:28:47.985Z,24.16
2022-08-07T21:32:41.960Z,24.06
2022-08-07T21:34:34.143Z,24.01
2022-08-07T21:37:07.984Z,23.96
2022-08-07T21:39:51.548Z,23.93
2022-08-07T21:42:48.662Z,23.88
2022-08-07T21:46:08.986Z,23.83
2022-08-07T21:48:28.743Z,23.68
2022-08-07T21:51:20.025Z,23.68
2022-08-07T21:53:54.010Z,23.67
2022-08-07T21:56:46.971Z,23.60
2022-08-07T21:59:22.528Z,23.58
2022-08-07T22:02:10.786Z,23.54
2022-08-07T22:04:53.652Z,23.47
2022-08-07T22:07:31.426Z,23.48
2022-08-07T22:10:04.234Z,23.45
2022-08-07T22:12:45.190Z,23.37
2022-08-07T22:16:42.141Z,23.29
2022-08-07T22:18:38.942Z,23.26
2022-08-07T22:21:19.329Z,23.21
2022-08-07T22:23:56.878Z,23.17
2022-08-07T22:26:34.622Z,23.14
2022-08-07T22:29:17.737Z,23.05
2022-08-07T22:32:08.747Z,23.03
2022-08-07T22:34:40.950Z,22.92
2022-08-07T22:38:04.285Z,22.95
2022-08-07T22:40:55.106Z,22.86
2022-08-07T22:43:48.155Z,22.80
2022-08-07T22:47:03.905Z,22.76
2022-08-07T22:49:23.305Z,22.72
2022-08-07T22:51:51.982Z,22.69
2022-08-07T22:54:33.914Z,22.63
2022-08-07T22:57:29.093Z,22.63
2022-08-07T23:00:18.267Z,22.51
2022-08-07T23:03:09.448Z,22.45
2022-08-07T23:06:15.662Z,22.44
2022-08-07T23:08:56.009Z,22.41
2022-08-07T23:11:46.943Z,22.31
2022-08-07T23:14:20.401Z,22.33
2022-08-07T23:17:20.134Z,22.38
2022-08-07T23:20:21.354Z,22.20
2022-08-07T23:23:11.174Z,22.19
2022-08-07T23:25:56.635Z,22.19
2022-08-07T23:28:53.324Z,22.17
2022-08-07T23:32:49.662Z,22.13
2022-08-07T23:34:37.283Z,22.09
2022-08-07T23:37:20.118Z,22.04
2022-08-07T23:40:08.281Z,21.95
2022-08-07T23:43:01.240Z,21.99
2022-08-07T23:46:02.676Z,21.94
2022-08-07T23:48:56.160Z,21.90
2022-08-07T23:52:58.136Z,21.89
2022-08-07T23:54:44.607Z,21.83
2022-08-07T23:57:34.894Z,21.77
